Terminal Aerodrome Forecast
Issued by NWS Charleston, WV

Current Version | Previous Version | Text Only | Print | Product List | Glossary Off
Versions: 1 2 3 4 5 6 7 8 9 10 11 12 13 14 15 16 17 18 19 20 21 22 23 24 25 26

000
FTUS41 KRLX 301200 AAA
TAFCRW
TAF AMD
KCRW 301253Z 3013/3112 28011G20KT 1SM -SN BKN010 OVC045
     FM301330 31011G17KT 4SM -SN BR BKN025
     FM301800 31011G17KT P6SM BKN050=

USA.gov is the U.S. government's official web portal to all federal, state and local government web resources and services.